createdAt,value
2023-02-22T00:04:21.806Z,13.97
2023-02-22T00:09:43.535Z,14.33
2023-02-22T00:15:05.896Z,13.60
2023-02-22T00:20:27.339Z,14.40
2023-02-22T00:25:50.613Z,15.80
2023-02-22T00:31:12.214Z,18.50
2023-02-22T00:36:33.969Z,14.53
2023-02-22T00:41:55.620Z,15.37
2023-02-22T00:47:17.356Z,16.07
2023-02-22T00:52:40.235Z,15.17
2023-02-22T00:58:02.939Z,13.30
2023-02-22T01:03:24.539Z,14.50
2023-02-22T01:08:47.828Z,13.53
2023-02-22T01:14:09.909Z,16.17
2023-02-22T01:19:32.515Z,16.47
2023-02-22T01:24:55.443Z,16.73
2023-02-22T01:30:20.718Z,17.93
2023-02-22T01:35:43.972Z,16.67
2023-02-22T01:41:06.562Z,20.07
2023-02-22T01:46:30.081Z,15.00
2023-02-22T01:51:53.805Z,16.53
2023-02-22T01:57:32.755Z,16.77
2023-02-22T02:03:03.003Z,19.53
2023-02-22T02:08:39.578Z,15.80
2023-02-22T02:14:01.224Z,17.90
2023-02-22T02:19:44.572Z,17.27
2023-02-22T02:25:44.392Z,19.60
2023-02-22T02:31:30.219Z,20.97
2023-02-22T02:37:15.385Z,19.50
2023-02-22T02:42:46.448Z,19.57
2023-02-22T02:48:11.679Z,22.20
2023-02-22T02:53:37.558Z,24.07
2023-02-22T02:58:59.136Z,22.23
2023-02-22T03:04:49.090Z,16.20
2023-02-22T03:10:28.928Z,20.30
2023-02-22T03:15:59.514Z,19.37
2023-02-22T03:21:40.147Z,23.63
2023-02-22T03:27:21.884Z,25.73
2023-02-22T03:32:52.920Z,21.20
2023-02-22T03:38:20.152Z,23.10
2023-02-22T03:43:55.312Z,22.90
2023-02-22T03:49:36.262Z,24.03
2023-02-22T03:55:01.011Z,22.37
2023-02-22T04:00:27.002Z,20.33
2023-02-22T04:05:48.942Z,27.13
2023-02-22T04:11:10.632Z,21.40
2023-02-22T04:16:33.238Z,19.33
2023-02-22T04:21:55.941Z,18.27
2023-02-22T04:27:20.612Z,18.30
2023-02-22T04:32:43.487Z,21.60
2023-02-22T04:38:06.273Z,21.33
2023-02-22T04:43:28.098Z,23.13
2023-02-22T04:48:58.281Z,23.80
2023-02-22T04:54:23.207Z,19.00
2023-02-22T04:59:46.118Z,22.93
2023-02-22T05:05:07.981Z,21.77
2023-02-22T05:10:29.982Z,22.67
2023-02-22T05:15:51.674Z,25.27
2023-02-22T05:21:13.793Z,19.13
2023-02-22T05:26:35.761Z,25.37
2023-02-22T05:31:58.609Z,22.43
2023-02-22T05:37:20.208Z,21.23
2023-02-22T05:42:42.148Z,19.93
2023-02-22T05:48:04.160Z,18.43
2023-02-22T05:53:25.844Z,18.83
2023-02-22T05:58:51.682Z,17.87
2023-02-22T06:04:13.213Z,20.37
2023-02-22T06:09:34.855Z,24.50
2023-02-22T06:14:56.659Z,18.33
2023-02-22T06:20:21.619Z,20.27
2023-02-22T06:25:43.605Z,22.43
2023-02-22T06:31:05.441Z,22.93
2023-02-22T06:36:27.051Z,22.90
2023-02-22T06:41:50.719Z,26.03
2023-02-22T06:47:12.350Z,23.13
2023-02-22T06:52:34.235Z,19.73
2023-02-22T06:57:55.977Z,21.17
2023-02-22T07:03:17.731Z,25.07
2023-02-22T07:08:39.283Z,28.37
2023-02-22T07:14:00.963Z,28.23
2023-02-22T07:19:22.796Z,26.37
2023-02-22T07:24:44.619Z,22.17
2023-02-22T07:30:40.175Z,24.40
2023-02-22T07:36:02.121Z,28.10
2023-02-22T07:41:23.766Z,24.40
2023-02-22T07:46:53.208Z,26.47
2023-02-22T07:52:15.025Z,25.73
2023-02-22T07:57:36.570Z,30.83
2023-02-22T08:02:59.934Z,25.93
2023-02-22T08:08:22.525Z,29.43
2023-02-22T08:13:44.021Z,23.90
2023-02-22T08:19:05.814Z,31.60
2023-02-22T08:24:27.365Z,29.43
2023-02-22T08:29:49.110Z,23.97
2023-02-22T08:35:10.709Z,23.37
2023-02-22T08:40:35.196Z,22.73
2023-02-22T08:45:57.730Z,30.20
2023-02-22T08:51:20.939Z,23.97
2023-02-22T08:56:42.472Z,28.60
2023-02-22T09:08:35.810Z,27.77
2023-02-22T09:20:26.479Z,26.53
2023-02-22T09:25:48.971Z,25.77
2023-02-22T09:31:10.725Z,25.03
2023-02-22T09:36:32.538Z,27.27
2023-02-22T09:42:09.610Z,24.47
2023-02-22T09:47:49.700Z,22.43
2023-02-22T09:53:22.198Z,21.87
2023-02-22T09:58:54.842Z,20.40
2023-02-22T10:04:34.679Z,20.03
2023-02-22T10:09:59.026Z,19.23
2023-02-22T10:15:51.775Z,15.70
2023-02-22T10:21:37.021Z,17.27
2023-02-22T10:27:00.580Z,12.53
2023-02-22T10:32:28.783Z,9.77
2023-02-22T10:37:55.263Z,10.83
2023-02-22T10:43:16.933Z,9.80
2023-02-22T10:48:40.751Z,11.33
2023-02-22T10:54:14.682Z,9.70
2023-02-22T10:59:41.184Z,7.80
2023-02-22T11:05:04.978Z,8.27
2023-02-22T11:10:38.822Z,7.20
2023-02-22T11:16:17.862Z,8.50
2023-02-22T11:21:40.675Z,8.03
2023-02-22T11:27:06.198Z,6.97
2023-02-22T11:32:27.743Z,7.60
2023-02-22T11:37:49.185Z,7.80
2023-02-22T11:43:19.394Z,8.53
2023-02-22T11:48:45.815Z,8.47
2023-02-22T11:54:25.670Z,7.37
2023-02-22T12:00:02.593Z,6.90
2023-02-22T12:05:59.793Z,8.93
2023-02-22T12:11:39.706Z,10.10
2023-02-22T12:17:01.891Z,6.57
2023-02-22T12:22:39.956Z,10.03
2023-02-22T12:28:35.241Z,8.03
2023-02-22T12:34:22.096Z,7.47
2023-02-22T12:39:59.656Z,7.80
2023-02-22T12:45:41.759Z,5.63
2023-02-22T12:51:27.121Z,8.23
2023-02-22T12:57:10.032Z,8.30
2023-02-22T13:02:39.935Z,8.83
2023-02-22T13:08:24.421Z,17.90
2023-02-22T13:14:04.456Z,10.50
2023-02-22T13:20:00.853Z,9.47
2023-02-22T13:25:33.741Z,8.70
2023-02-22T13:31:11.021Z,6.97
2023-02-22T13:36:49.499Z,10.47
2023-02-22T13:42:43.849Z,6.63
2023-02-22T13:48:24.393Z,6.43
2023-02-22T13:53:56.491Z,5.87
2023-02-22T13:59:28.400Z,7.63
2023-02-22T14:04:49.957Z,5.47
2023-02-22T14:10:43.667Z,5.77
2023-02-22T14:16:08.050Z,5.90
2023-02-22T14:21:29.880Z,4.23
2023-02-22T14:27:17.704Z,5.83
2023-02-22T14:32:39.419Z,5.30
2023-02-22T14:38:02.447Z,5.10
2023-02-22T14:43:26.072Z,8.47
2023-02-22T14:48:50.722Z,6.50
2023-02-22T14:54:47.283Z,5.77
2023-02-22T15:00:20.305Z,5.83
2023-02-22T15:05:42.115Z,5.43
2023-02-22T15:11:03.871Z,7.10
2023-02-22T15:16:29.475Z,6.60
2023-02-22T15:21:54.132Z,6.13
2023-02-22T15:27:18.164Z,4.47
2023-02-22T15:32:56.963Z,5.03
2023-02-22T15:38:32.346Z,4.80
2023-02-22T15:44:23.191Z,6.60
2023-02-22T15:49:45.406Z,6.70
2023-02-22T15:55:11.852Z,9.07
2023-02-22T16:00:37.145Z,7.27
2023-02-22T16:05:59.734Z,7.63
2023-02-22T16:11:38.678Z,13.50
2023-02-22T16:17:29.512Z,17.13
2023-02-22T16:22:51.200Z,9.67
2023-02-22T16:28:34.142Z,9.50
2023-02-22T16:33:56.067Z,9.63
2023-02-22T16:39:29.870Z,12.50
2023-02-22T16:44:53.236Z,9.53
2023-02-22T16:50:17.452Z,11.50
2023-02-22T16:55:42.068Z,11.43
2023-02-22T17:01:04.451Z,13.17
2023-02-22T17:06:25.810Z,16.47
2023-02-22T17:11:50.345Z,16.13
2023-02-22T17:17:13.865Z,14.57
2023-02-22T17:22:35.056Z,21.17
2023-02-22T17:27:57.621Z,20.00
2023-02-22T17:33:22.751Z,21.70
2023-02-22T17:38:44.377Z,22.20
2023-02-22T17:44:06.500Z,22.70
2023-02-22T17:49:27.818Z,28.60
2023-02-22T17:54:49.470Z,26.60
2023-02-22T18:00:23.446Z,29.77
2023-02-22T18:05:47.391Z,32.10
2023-02-22T18:11:09.292Z,28.33
2023-02-22T18:16:30.945Z,26.83
2023-02-22T18:21:52.718Z,32.67
2023-02-22T18:27:15.120Z,28.80
2023-02-22T18:32:36.888Z,32.40
2023-02-22T18:37:58.868Z,31.43
2023-02-22T18:43:20.235Z,30.60
2023-02-22T18:48:42.181Z,30.13
2023-02-22T18:54:03.524Z,31.00
2023-02-22T18:59:25.292Z,35.47
2023-02-22T19:04:47.500Z,33.27
2023-02-22T19:10:09.103Z,33.43
2023-02-22T19:15:30.587Z,29.53
2023-02-22T19:21:00.571Z,30.97
2023-02-22T19:26:24.959Z,28.60
2023-02-22T19:31:51.353Z,31.23
2023-02-22T19:37:13.393Z,33.10
2023-02-22T19:42:34.969Z,33.63
2023-02-22T19:47:56.700Z,33.43
2023-02-22T19:53:18.318Z,33.57
2023-02-22T19:58:41.427Z,31.93
2023-02-22T20:04:05.593Z,27.70
2023-02-22T20:09:36.665Z,28.30
2023-02-22T20:15:01.128Z,31.27
2023-02-22T20:20:28.430Z,32.00
2023-02-22T20:25:56.185Z,30.27
2023-02-22T20:31:19.450Z,32.87
2023-02-22T20:36:42.336Z,29.27
2023-02-22T20:42:06.991Z,31.67
2023-02-22T20:47:28.939Z,30.80
2023-02-22T20:52:50.182Z,31.27
2023-02-22T20:58:11.832Z,32.67
2023-02-22T21:03:34.793Z,30.37
2023-02-22T21:08:58.904Z,31.63
2023-02-22T21:14:21.222Z,36.97
2023-02-22T21:19:43.017Z,35.90
2023-02-22T21:25:04.987Z,37.20
2023-02-22T21:30:27.669Z,35.07
2023-02-22T21:35:50.601Z,39.60
2023-02-22T21:41:16.339Z,36.03
2023-02-22T21:46:38.419Z,36.73
2023-02-22T21:52:00.334Z,37.97
2023-02-22T21:57:21.925Z,33.03
2023-02-22T22:02:46.288Z,38.03
2023-02-22T22:08:07.858Z,36.27
2023-02-22T22:13:29.551Z,37.23
2023-02-22T22:18:51.271Z,38.10
2023-02-22T22:24:13.094Z,36.57
2023-02-22T22:29:34.939Z,37.10
2023-02-22T22:34:59.447Z,38.50
2023-02-22T22:40:20.906Z,38.33
2023-02-22T22:45:43.722Z,35.93
2023-02-22T22:51:13.311Z,36.10
2023-02-22T22:56:35.445Z,36.50
2023-02-22T23:01:57.157Z,38.97
2023-02-22T23:07:19.412Z,40.23
2023-02-22T23:12:41.077Z,38.90
2023-02-22T23:18:04.010Z,33.13
2023-02-22T23:23:28.000Z,33.83
2023-02-22T23:28:49.864Z,34.63
2023-02-22T23:34:11.369Z,33.33
2023-02-22T23:39:33.240Z,34.00
2023-02-22T23:44:54.827Z,29.37
2023-02-22T23:50:19.295Z,29.40
2023-02-22T23:55:44.141Z,33.03
